• Join FlightAware (Why Join?)
  • Login
  • US Flag 
07:10AM EDT


 

Airport Tracker/Info


-or-


 

Live Flight TrackerFlight Track Log ✈ UPS1121 ✈ 28-Aug-2013 ✈ KBDL - KPHL

Flight Track Log - Related Links

Times and Time Zones

All times are in EDT time to prevent confusion due to time zone crossing. See the UPS1121 flight status page for this flight to view local times or setup timezone preferences in your user account.

Time Position Orientation Groundspeed Altitude Reporting Facility
EDT Latitude Longitude Course Direction KTS MPH feet Rate Location/Type
10:02PM 41.9375 -72.6942 186° South 132 152 1,000  Level Boston Center
10:04PM 41.8417 -72.7075 186° South 231 266 5,900 2,880 Climbing Boston Center
10:05PM 41.7686 -72.6461 148° Southeast 254 292 9,800 2,760 Climbing Boston Center
10:06PM 41.7000 -72.5986 153° Southeast 292 336 11,600 2,280 Climbing Boston Center
10:07PM 41.6125 -72.5039 141° Southeast 355 409 14,300 2,400 Climbing Boston Center
10:08PM 41.5458 -72.4122 134° Southeast 372 428 16,500 1,320 Climbing Boston Center
10:09PM 41.4292 -72.3819 169° South 380 437 17,000 240 Climbing Boston Center
10:10PM 41.3314 -72.4069 191° South 387 445 17,000 540 Level Boston Center
10:11PM 41.2208 -72.4264 188° South 399 459 18,100 1,440 Climbing Boston Center
10:12PM 41.1167 -72.4814 202° Southwest 405 466 20,000 900 Climbing Boston Center
10:13PM 41.0250 -72.5639 214° Southwest 399 459 20,000  Level Boston Center
10:14PM 40.9331 -72.6489 215° Southwest 404 465 20,000  Level Boston Center
10:16PM 40.7589 -72.8014 214° Southwest 408 470 20,000  Level New York Center
10:17PM 40.6658 -72.8833 214° Southwest 403 464 20,000  Level New York Center
10:18PM 40.5728 -72.9625 213° Southwest 403 464 20,000  Level New York Center
10:19PM 40.4817 -73.0439 214° Southwest 403 464 20,000  Level New York Center
10:20PM 40.3903 -73.1256 214° Southwest 403 464 20,000  Level New York Center
10:21PM 40.2950 -73.2064 213° Southwest 403 464 20,000  Level New York Center
10:22PM 40.2036 -73.2875 214° Southwest 403 464 20,000  Level New York Center
10:23PM 40.1103 -73.3683 214° Southwest 403 464 20,000  Level New York Center
10:24PM 40.0167 -73.4461 212° Southwest 403 464 20,000  Level New York Center
10:26PM 39.8411 -73.6419 221° Southwest 403 464 20,000  Level New York Center
10:27PM 39.7967 -73.7119 230° Southwest 362 417 20,000  Level Washington Center
10:28PM 39.7253 -73.8217 230° Southwest 378 435 20,000 -900 Level Washington Center
10:29PM 39.6561 -73.9286 230° Southwest 389 448 18,300 -1,920 Descending Washington Center
10:30PM 39.5908 -74.0350 231° Southwest 389 448 16,200 -2,040 Descending Washington Center
10:31PM 39.5297 -74.1439 234° Southwest 384 442 14,200 -1,140 Descending Washington Center
10:32PM 39.5250 -74.2706 267° West 354 407 14,000 -900 Descending Washington Center
10:34PM 39.5333 -74.5000 273° West 341 392 11,700 -1,260 Descending Philadelphia TRACON
10:34PM 39.5333 -74.5833 270° West 326 375 10,800 -1,080 Descending Philadelphia TRACON
10:35PM 39.5333 -74.7000 270° West 300 345 9,900 -900 Descending Philadelphia TRACON
10:36PM 39.5667 -74.8000 293° West 288 331 9,000 -480 Descending Philadelphia TRACON
10:37PM 39.5833 -74.8833 285° West 296 341 9,100 -120 Climbing Philadelphia TRACON
10:38PM 39.6000 -74.9833 282° West 294 338 8,800 -720 Descending Philadelphia TRACON
10:39PM 39.6167 -75.0833 282° West 285 328 7,800 -1,260 Descending Philadelphia TRACON
10:40PM 39.6333 -75.1833 282° West 276 318 6,300 -1,440 Descending Philadelphia TRACON
10:41PM 39.6500 -75.2833 282° West 281 323 4,900 -960 Descending Philadelphia TRACON
10:42PM 39.6667 -75.3833 282° West 248 285 4,400 -720 Descending Philadelphia TRACON
10:43PM 39.7000 -75.4667 297° West 233 268 3,500 -720 Descending Philadelphia TRACON
10:44PM 39.7500 -75.5167 322° Northwest 229 264 3,000 -180 Descending Philadelphia TRACON
10:46PM 39.8167 -75.5000 11° North 180 207 3,100 -180 Climbing Philadelphia TRACON
10:47PM 39.8333 -75.4500 67° East 181 208 2,600 -660 Descending Philadelphia TRACON
10:48PM 39.8333 -75.3833 90° East 157 181 1,800 -780 Descending Philadelphia TRACON
10:49PM 39.8500 -75.3500 57° Northeast 108 124 1,100 -600 Descending Philadelphia TRACON
10:50PM 39.8500 -75.3000 90° East 117 135 600 -540 Descending Philadelphia TRACON
10:52PM 39.8667 -75.2333 75° East  Level FlightAware Approximate